Terminal Aerodrome Forecast
Issued by NWS Wakefield, VA

Home | Current Version | Previous Version | Text Only | Print | Product List | Glossary On
Versions: 1 2 3 4 5 6 7 8 9 10 11 12 13
000
FTUS41 KAKQ 231128
TAFORF
TAF
KORF 231128Z 2312/2412 15007KT P6SM BKN050 BKN250
     FM231600 15012KT P6SM SCT060 BKN250
     FM232100 16014G22KT P6SM BKN050
     FM240800 18015G25KT 4SM SHRA OVC030=

USA.gov is the U.S. government's official web portal to all federal, state and local government web resources and services.